logo

United by the hobby
of model aircraft flying

Promoting safe
radio model flying

Sharing the experience
of RC flying

Dedicated to the sport of model aviation

Meeting
Venue

Third Monday Each Month
Crown Point Civic Center
101 S East Street
Crown Point, IN 46307

Read More

email:
[javascript protected email address]

View our events calendar

2021

Weather Conditions

Elev 730 ft    41.19°N  87.16°W

46.9 °F
330°
14 m/h
Wind Variable Wind from NNW

Current Conditions

Pressure 30.29 in
Visibility 10 miles
Clouds Clear
Dew Point 19.9 °F
Humidity 33 %
Rainfall 0.00 in
 
METAR KVPZ 062056Z AUTO 33012G19KT 10SM CLR 08/M07 A3029 RMK AO2 SLP264 T00831067 56020

Forecast

INFORMATION PROVIDED BY THE INDIANA STATE FORECAST - NATIONAL WEATHER SERVICE
Sunrise & Sunset
March 6, 2021
S:43 AM

::48 PM
High 43 | Low 26°F
March 7, 2021
S:43 AM

::48 PM
High | Low °F
 

our gallery

View All